Time;durP1;ratioP1;P1;durP2;ratioP2;P2;SDS_P1;SDS_P2;PMS_P1;PMS_P2;Temp;Humidity;BMP_temperature;BMP_pressure;BME280_temperature;BME280_humidity;BME280_pressure;Samples;Min_cycle;Max_cycle;Signal;HPM_P1;HPM_P2
2023/04/18 00:01:51;;;;;;;6.30;5.70;;;;;;;;;;4819666;29;20383;-84
2023/04/18 00:04:19;;;;;;;8.93;6.15;;;;;;;;;;4817060;29;20161;-84
2023/04/18 00:06:48;;;;;;;6.47;5.80;;;;;;;;;;4799384;29;20054;-84
2023/04/18 00:09:16;;;;;;;6.13;5.57;;;;;;;;;;4819015;29;20122;-84
2023/04/18 00:11:44;;;;;;;6.90;6.30;;;;;;;;;;4824647;29;20059;-84
2023/04/18 00:14:12;;;;;;;7.25;6.65;;;;;;;;;;4814835;29;20061;-85
2023/04/18 00:16:39;;;;;;;7.10;6.32;;;;;;;;;;4831903;29;20062;-85
2023/04/18 00:19:07;;;;;;;7.30;6.60;;;;;;;;;;4823297;29;20054;-85
2023/04/18 00:21:36;;;;;;;7.50;6.57;;;;;;;;;;4832418;29;20050;-85
2023/04/18 00:24:03;;;;;;;7.68;6.95;;;;;;;;;;4819385;29;20054;-84
2023/04/18 00:26:31;;;;;;;7.35;6.65;;;;;;;;;;4834569;29;20066;-84
2023/04/18 00:28:58;;;;;;;8.55;6.53;;;;;;;;;;4817482;29;20062;-84
2023/04/18 00:31:25;;;;;;;5.97;5.40;;;;;;;;;;4816213;29;20531;-84
2023/04/18 00:33:53;;;;;;;8.40;7.00;;;;;;;;;;4815091;29;20050;-84
2023/04/18 00:36:23;;;;;;;6.85;6.22;;;;;;;;;;4836149;29;20121;-84
2023/04/18 00:38:50;;;;;;;9.30;6.80;;;;;;;;;;4820522;29;20243;-84
2023/04/18 00:41:18;;;;;;;7.32;6.63;;;;;;;;;;4814751;29;20058;-84
2023/04/18 00:43:46;;;;;;;9.30;7.35;;;;;;;;;;4814971;29;20043;-84
2023/04/18 00:46:13;;;;;;;7.95;7.13;;;;;;;;;;4831341;29;20050;-85
2023/04/18 00:48:41;;;;;;;8.60;7.70;;;;;;;;;;4834131;29;20089;-84
2023/04/18 00:51:09;;;;;;;8.70;7.15;;;;;;;;;;4821228;29;20054;-84
2023/04/18 00:53:37;;;;;;;10.02;7.35;;;;;;;;;;4836219;29;20050;-84
2023/04/18 00:56:05;;;;;;;8.63;6.90;;;;;;;;;;4816589;29;20426;-85
2023/04/18 00:58:32;;;;;;;8.85;6.78;;;;;;;;;;4837583;29;20050;-85
2023/04/18 01:00:59;;;;;;;7.93;7.13;;;;;;;;;;4836499;29;20070;-84
2023/04/18 01:03:27;;;;;;;8.63;7.32;;;;;;;;;;4836564;29;20464;-84
2023/04/18 01:05:56;;;;;;;8.25;7.28;;;;;;;;;;4839328;29;20111;-84
2023/04/18 01:08:25;;;;;;;8.05;7.25;;;;;;;;;;4826512;29;20205;-84
2023/04/18 01:10:52;;;;;;;8.77;7.30;;;;;;;;;;4840083;29;20062;-84
2023/04/18 01:13:20;;;;;;;9.68;7.35;;;;;;;;;;4840696;29;20136;-84
2023/04/18 01:15:48;;;;;;;8.77;7.88;;;;;;;;;;4843415;29;20038;-85
2023/04/18 01:18:16;;;;;;;8.13;7.32;;;;;;;;;;4836182;29;20096;-84
2023/04/18 01:20:45;;;;;;;9.38;7.57;;;;;;;;;;4839414;29;20060;-85
2023/04/18 01:23:13;;;;;;;8.75;7.85;;;;;;;;;;4842315;29;20054;-85
2023/04/18 01:25:41;;;;;;;8.45;7.55;;;;;;;;;;4822212;29;20046;-84
2023/04/18 01:28:09;;;;;;;9.73;8.75;;;;;;;;;;4828860;29;20484;-85
2023/04/18 01:30:36;;;;;;;9.25;8.25;;;;;;;;;;4813348;29;20473;-85
2023/04/18 01:33:04;;;;;;;10.20;7.82;;;;;;;;;;4816010;29;20042;-84
2023/04/18 01:35:33;;;;;;;12.02;7.88;;;;;;;;;;4831457;29;20107;-84
2023/04/18 01:38:00;;;;;;;9.30;7.43;;;;;;;;;;4834917;29;20411;-84
2023/04/18 01:40:28;;;;;;;9.27;7.90;;;;;;;;;;4833068;29;20050;-84
2023/04/18 01:42:56;;;;;;;9.30;7.55;;;;;;;;;;4816777;29;20106;-85
2023/04/18 01:45:23;;;;;;;8.52;7.63;;;;;;;;;;4813692;29;20050;-84
2023/04/18 01:47:51;;;;;;;11.57;7.60;;;;;;;;;;4831831;29;20073;-85
2023/04/18 01:50:18;;;;;;;10.00;8.25;;;;;;;;;;4830068;29;21452;-84
2023/04/18 01:52:46;;;;;;;9.90;7.57;;;;;;;;;;4818424;29;20292;-84
2023/04/18 01:55:15;;;;;;;9.30;8.23;;;;;;;;;;4832692;29;20050;-84
2023/04/18 01:57:42;;;;;;;9.95;8.88;;;;;;;;;;4835480;29;20061;-84
2023/04/18 02:00:10;;;;;;;9.25;7.40;;;;;;;;;;4818691;29;20049;-84
2023/04/18 02:02:41;;;;;;;8.43;7.53;;;;;;;;;;4823219;29;20229;-84
2023/04/18 02:05:09;;;;;;;11.43;7.57;;;;;;;;;;4816268;29;20582;-85
2023/04/18 02:07:39;;;;;;;10.55;8.13;;;;;;;;;;4835225;24;20100;-81
2023/04/18 02:10:08;;;;;;;9.68;7.60;;;;;;;;;;4844550;29;20066;-81
2023/04/18 02:12:36;;;;;;;10.40;7.93;;;;;;;;;;4843486;29;20140;-81
2023/04/18 02:15:04;;;;;;;11.02;8.40;;;;;;;;;;4837500;29;20070;-82
2023/04/18 02:17:35;;;;;;;9.02;7.97;;;;;;;;;;4841830;29;20045;-82
2023/04/18 02:20:03;;;;;;;9.50;8.13;;;;;;;;;;4840186;29;20054;-83
2023/04/18 02:22:31;;;;;;;9.63;8.23;;;;;;;;;;4846564;29;20260;-81
2023/04/18 02:25:00;;;;;;;9.65;8.50;;;;;;;;;;4851890;29;20050;-81
2023/04/18 02:27:27;;;;;;;9.38;7.88;;;;;;;;;;4842994;29;20050;-81
2023/04/18 02:29:57;;;;;;;10.07;7.80;;;;;;;;;;4839467;29;20046;-81
2023/04/18 02:32:24;;;;;;;8.90;7.68;;;;;;;;;;4842161;29;20967;-81
2023/04/18 02:34:52;;;;;;;11.70;7.85;;;;;;;;;;4835198;29;20058;-82
2023/04/18 02:37:19;;;;;;;9.38;8.30;;;;;;;;;;4836836;29;20053;-82
2023/04/18 02:39:47;;;;;;;9.32;7.93;;;;;;;;;;4832581;29;20694;-81
2023/04/18 02:42:15;;;;;;;9.60;8.60;;;;;;;;;;4836507;29;20310;-81
2023/04/18 02:44:42;;;;;;;8.95;7.85;;;;;;;;;;4842773;29;20208;-81
2023/04/18 02:47:10;;;;;;;8.95;8.05;;;;;;;;;;4843224;29;20073;-81
2023/04/18 02:49:40;;;;;;;11.20;8.85;;;;;;;;;;4855124;29;20046;-81
2023/04/18 02:52:08;;;;;;;9.45;7.93;;;;;;;;;;4841271;29;20050;-82
2023/04/18 02:54:35;;;;;;;11.23;9.20;;;;;;;;;;4841955;29;20109;-82
2023/04/18 02:57:10;;;;;;;9.35;8.32;;;;;;;;;;4834151;29;20413;-83
2023/04/18 02:59:47;;;;;;;9.63;8.30;;;;;;;;;;4841662;29;20612;-82
2023/04/18 03:02:32;;;;;;;10.35;8.13;;;;;;;;;;4845171;29;20049;-80
2023/04/18 03:05:10;;;;;;;11.02;8.45;;;;;;;;;;4843032;29;20049;-83
2023/04/18 03:07:38;;;;;;;9.48;7.78;;;;;;;;;;4838956;29;20046;-81
2023/04/18 03:10:06;;;;;;;11.65;8.40;;;;;;;;;;4830599;29;20053;-80
2023/04/18 03:12:36;;;;;;;9.60;8.10;;;;;;;;;;4835659;29;20073;-81
2023/04/18 03:15:03;;;;;;;13.35;9.35;;;;;;;;;;4834403;29;20418;-82
2023/04/18 03:17:32;;;;;;;11.43;8.73;;;;;;;;;;4830551;29;20049;-81
2023/04/18 03:19:59;;;;;;;11.02;8.30;;;;;;;;;;4837850;29;20046;-81
2023/04/18 03:22:29;;;;;;;10.10;8.32;;;;;;;;;;4840263;29;20045;-81
2023/04/18 03:24:59;;;;;;;11.00;8.27;;;;;;;;;;4838397;29;20046;-81
2023/04/18 03:27:50;;;;;;;12.35;8.48;;;;;;;;;;4833183;29;20050;-81
2023/04/18 03:30:20;;;;;;;10.75;7.93;;;;;;;;;;4832375;29;20792;-81
2023/04/18 03:32:58;;;;;;;10.00;8.40;;;;;;;;;;4836216;29;20439;-81
2023/04/18 03:35:26;;;;;;;8.80;7.90;;;;;;;;;;4844008;29;20065;-82
2023/04/18 03:37:54;;;;;;;10.43;8.13;;;;;;;;;;4834126;29;20066;-82
2023/04/18 03:40:25;;;;;;;12.07;9.30;;;;;;;;;;4840855;29;20041;-82
2023/04/18 03:42:56;;;;;;;12.13;8.80;;;;;;;;;;4849531;29;20086;-81
2023/04/18 03:45:23;;;;;;;11.25;9.00;;;;;;;;;;4846560;29;20144;-82
2023/04/18 03:47:51;;;;;;;10.38;8.35;;;;;;;;;;4834721;29;20046;-81
2023/04/18 03:50:21;;;;;;;11.13;9.00;;;;;;;;;;4837934;29;20058;-81
2023/04/18 03:52:49;;;;;;;9.55;8.30;;;;;;;;;;4836220;29;20060;-81
2023/04/18 03:55:18;;;;;;;11.30;8.80;;;;;;;;;;4838616;29;20091;-81
2023/04/18 03:57:46;;;;;;;11.27;9.18;;;;;;;;;;4841723;29;20054;-80
2023/04/18 04:00:21;;;;;;;10.68;9.52;;;;;;;;;;4842257;29;20512;-82
2023/04/18 04:02:56;;;;;;;11.40;10.15;;;;;;;;;;4836503;29;20057;-80
2023/04/18 04:05:24;;;;;;;12.13;8.77;;;;;;;;;;4838690;29;20042;-81
2023/04/18 04:07:51;;;;;;;10.18;9.07;;;;;;;;;;4850970;29;20152;-81
2023/04/18 04:10:19;;;;;;;13.60;10.27;;;;;;;;;;4837066;29;20054;-81
2023/04/18 04:12:49;;;;;;;12.82;11.40;;;;;;;;;;4834088;29;20482;-82
2023/04/18 04:15:18;;;;;;;14.10;11.68;;;;;;;;;;4845512;29;20110;-82
2023/04/18 04:17:58;;;;;;;16.98;11.65;;;;;;;;;;4843797;29;20345;-84
2023/04/18 04:20:25;;;;;;;12.27;10.13;;;;;;;;;;4846379;29;20148;-82
2023/04/18 04:23:01;;;;;;;13.15;10.25;;;;;;;;;;4841045;29;20123;-80
2023/04/18 04:25:34;;;;;;;12.95;9.68;;;;;;;;;;4835511;29;20602;-81
2023/04/18 04:28:07;;;;;;;12.57;10.18;;;;;;;;;;4843246;29;20045;-81
2023/04/18 04:30:45;;;;;;;10.95;9.52;;;;;;;;;;4838776;29;20398;-80
2023/04/18 04:33:13;;;;;;;11.55;9.60;;;;;;;;;;4846192;29;20533;-80
2023/04/18 04:35:51;;;;;;;11.40;9.00;;;;;;;;;;4835685;29;20081;-81
2023/04/18 04:38:21;;;;;;;35.30;21.02;;;;;;;;;;4833523;29;20189;-80
2023/04/18 04:40:51;;;;;;;13.60;10.02;;;;;;;;;;4838320;29;20054;-81
2023/04/18 04:43:19;;;;;;;11.52;10.20;;;;;;;;;;4836711;29;20063;-82
2023/04/18 04:45:50;;;;;;;18.95;9.48;;;;;;;;;;4834917;29;20045;-81
2023/04/18 04:48:23;;;;;;;12.40;10.38;;;;;;;;;;4837577;29;21525;-82
2023/04/18 04:50:53;;;;;;;13.40;10.20;;;;;;;;;;4832406;29;20064;-82
2023/04/18 04:53:21;;;;;;;12.02;10.10;;;;;;;;;;4832717;29;20136;-80
2023/04/18 04:55:48;;;;;;;12.55;10.02;;;;;;;;;;4831023;29;20061;-82
2023/04/18 04:58:17;;;;;;;11.10;9.35;;;;;;;;;;4824458;29;20058;-81
2023/04/18 05:00:59;;;;;;;12.98;10.75;;;;;;;;;;4831366;29;20042;-81
2023/04/18 05:03:27;;;;;;;13.55;10.25;;;;;;;;;;4832763;29;20046;-80
2023/04/18 05:05:54;;;;;;;13.15;9.75;;;;;;;;;;4828816;29;20791;-81
2023/04/18 05:08:22;;;;;;;14.80;10.20;;;;;;;;;;4829072;29;20164;-81
2023/04/18 05:10:49;;;;;;;11.43;9.57;;;;;;;;;;4824078;29;20485;-81
2023/04/18 05:13:17;;;;;;;11.95;10.57;;;;;;;;;;4834058;29;20079;-81
2023/04/18 05:15:44;;;;;;;13.75;9.95;;;;;;;;;;4839932;29;20478;-81
2023/04/18 05:18:13;;;;;;;13.23;10.07;;;;;;;;;;4833407;29;20053;-81
2023/04/18 05:20:40;;;;;;;13.35;10.30;;;;;;;;;;4834601;29;20086;-81
2023/04/18 05:23:08;;;;;;;19.67;10.45;;;;;;;;;;4837429;29;20045;-81
2023/04/18 05:25:36;;;;;;;13.02;10.70;;;;;;;;;;4837053;29;20561;-81
2023/04/18 05:28:04;;;;;;;10.55;9.38;;;;;;;;;;4838107;29;20045;-81
2023/04/18 05:30:31;;;;;;;15.07;10.88;;;;;;;;;;4834460;29;20103;-81
2023/04/18 05:32:59;;;;;;;12.82;11.10;;;;;;;;;;4832756;29;20084;-81
2023/04/18 05:35:26;;;;;;;12.85;11.23;;;;;;;;;;4835067;29;20076;-83
2023/04/18 05:37:54;;;;;;;13.18;11.43;;;;;;;;;;4833939;29;20285;-80
2023/04/18 05:40:21;;;;;;;12.25;10.65;;;;;;;;;;4829625;29;20050;-80
2023/04/18 05:42:49;;;;;;;11.77;10.10;;;;;;;;;;4831634;29;20114;-80
2023/04/18 05:45:16;;;;;;;11.40;10.20;;;;;;;;;;4833870;29;20115;-82
2023/04/18 05:47:44;;;;;;;11.57;10.30;;;;;;;;;;4828449;29;20531;-82
2023/04/18 05:50:11;;;;;;;12.18;10.68;;;;;;;;;;4828460;29;20048;-80
2023/04/18 05:52:39;;;;;;;12.20;10.68;;;;;;;;;;4827647;29;20061;-82
2023/04/18 05:55:07;;;;;;;14.68;11.00;;;;;;;;;;4832919;29;20054;-80
2023/04/18 05:57:35;;;;;;;11.90;10.07;;;;;;;;;;4835002;29;20038;-81
2023/04/18 06:00:06;;;;;;;12.00;10.18;;;;;;;;;;4830355;29;20042;-81
2023/04/18 06:02:38;;;;;;;14.30;10.02;;;;;;;;;;4830699;29;20052;-82
2023/04/18 06:05:07;;;;;;;17.90;10.35;;;;;;;;;;4834533;29;20046;-81
2023/04/18 06:07:35;;;;;;;18.65;10.38;;;;;;;;;;4847897;29;20095;-80
2023/04/18 06:10:04;;;;;;;29.92;11.15;;;;;;;;;;4838352;29;20064;-82
2023/04/18 06:12:31;;;;;;;19.38;11.27;;;;;;;;;;4836378;29;20073;-81
2023/04/18 06:14:59;;;;;;;14.15;10.27;;;;;;;;;;4837189;29;20041;-81
2023/04/18 06:17:29;;;;;;;10.10;9.10;;;;;;;;;;4835367;29;20072;-79
2023/04/18 06:19:57;;;;;;;11.70;9.52;;;;;;;;;;4838691;29;20061;-82
2023/04/18 06:22:24;;;;;;;12.88;9.35;;;;;;;;;;4845572;29;20121;-80
2023/04/18 06:24:54;;;;;;;13.27;10.38;;;;;;;;;;4842771;29;20168;-81
2023/04/18 06:27:21;;;;;;;10.45;9.35;;;;;;;;;;4835709;29;20680;-81
2023/04/18 06:29:58;;;;;;;13.50;9.40;;;;;;;;;;4827188;29;20054;-81
2023/04/18 06:32:26;;;;;;;10.75;9.43;;;;;;;;;;4850876;29;20051;-81
2023/04/18 06:34:53;;;;;;;14.10;10.57;;;;;;;;;;4833983;29;20042;-81
2023/04/18 06:37:20;;;;;;;14.43;11.82;;;;;;;;;;4838454;29;20053;-80
2023/04/18 06:39:48;;;;;;;13.38;11.98;;;;;;;;;;4833251;29;20122;-81
2023/04/18 06:42:16;;;;;;;12.95;11.48;;;;;;;;;;4837207;29;20049;-81
2023/04/18 06:44:44;;;;;;;14.13;11.70;;;;;;;;;;4836511;29;20046;-81
2023/04/18 06:47:11;;;;;;;18.20;12.15;;;;;;;;;;4836901;29;20042;-81
2023/04/18 06:49:39;;;;;;;15.75;13.00;;;;;;;;;;4836061;29;20078;-80
2023/04/18 06:52:06;;;;;;;14.77;11.77;;;;;;;;;;4836640;29;20565;-82
2023/04/18 06:54:34;;;;;;;15.65;12.73;;;;;;;;;;4836244;29;20077;-81
2023/04/18 06:57:02;;;;;;;11.95;10.25;;;;;;;;;;4835773;29;20045;-81
2023/04/18 06:59:29;;;;;;;13.15;10.52;;;;;;;;;;4841670;29;20251;-80
2023/04/18 07:01:57;;;;;;;15.52;10.30;;;;;;;;;;4836568;29;20137;-81
2023/04/18 07:04:26;;;;;;;11.90;10.05;;;;;;;;;;4837855;29;20050;-81
2023/04/18 07:06:54;;;;;;;10.63;9.27;;;;;;;;;;4837730;29;20666;-81
2023/04/18 07:09:21;;;;;;;17.20;10.20;;;;;;;;;;4836832;29;20132;-81
2023/04/18 07:11:51;;;;;;;12.23;10.25;;;;;;;;;;4834255;29;20052;-81
2023/04/18 07:14:20;;;;;;;13.27;9.77;;;;;;;;;;4831738;29;20106;-80
2023/04/18 07:16:51;;;;;;;10.32;9.23;;;;;;;;;;4837632;29;20519;-82
2023/04/18 07:19:18;;;;;;;6.93;6.20;;;;;;;;;;4838367;29;20620;-81
2023/04/18 07:21:46;;;;;;;7.93;5.70;;;;;;;;;;4835147;29;20054;-82
2023/04/18 07:24:13;;;;;;;7.30;5.32;;;;;;;;;;4830546;29;20110;-81
2023/04/18 07:26:41;;;;;;;5.60;5.10;;;;;;;;;;4837802;29;20481;-81
2023/04/18 07:29:08;;;;;;;5.18;4.30;;;;;;;;;;4839023;29;20093;-82
2023/04/18 07:31:36;;;;;;;5.50;4.10;;;;;;;;;;4840437;29;20786;-80
2023/04/18 07:34:03;;;;;;;6.43;4.28;;;;;;;;;;4836956;29;20140;-80
2023/04/18 07:36:31;;;;;;;5.75;4.18;;;;;;;;;;4833710;29;20046;-82
2023/04/18 07:38:58;;;;;;;3.90;3.50;;;;;;;;;;4831118;29;20129;-82
2023/04/18 07:41:26;;;;;;;8.55;4.22;;;;;;;;;;4840352;29;20463;-80
2023/04/18 07:43:53;;;;;;;3.58;3.22;;;;;;;;;;4839584;29;20473;-82
2023/04/18 07:46:21;;;;;;;3.45;3.15;;;;;;;;;;4837720;29;20465;-82
2023/04/18 07:48:48;;;;;;;3.60;3.30;;;;;;;;;;4834573;29;20057;-81
2023/04/18 07:51:16;;;;;;;5.43;3.70;;;;;;;;;;4839676;29;20153;-80
2023/04/18 07:53:43;;;;;;;4.85;3.88;;;;;;;;;;4833714;29;20050;-82
2023/04/18 07:56:11;;;;;;;9.57;4.40;;;;;;;;;;4827305;29;20149;-81
2023/04/18 07:58:39;;;;;;;4.82;3.78;;;;;;;;;;4829845;29;20053;-81
2023/04/18 08:01:07;;;;;;;6.03;4.20;;;;;;;;;;4835680;29;20129;-82
2023/04/18 08:03:35;;;;;;;6.50;3.80;;;;;;;;;;4832914;29;20245;-81
2023/04/18 08:06:04;;;;;;;6.15;4.28;;;;;;;;;;4836101;29;20129;-81
2023/04/18 08:08:50;;;;;;;4.65;4.25;;;;;;;;;;4861884;24;20049;-83
2023/04/18 08:11:42;;;;;;;5.60;3.20;;;;;;;;;;4829183;29;20157;-83
2023/04/18 08:15:31;;;;;;;4.37;3.97;;;;;;;;;;4821176;29;20062;-83
2023/04/18 08:23:00;;;;;;;6.35;5.65;;;;;;;;;;4818555;29;20461;-84
2023/04/18 08:26:42;;;;;;;4.18;3.60;;;;;;;;;;4745297;30;20075;-84
2023/04/18 08:29:40;;;;;;;4.13;3.72;;;;;;;;;;4746456;30;20134;-84
2023/04/18 08:33:26;;;;;;;5.32;3.97;;;;;;;;;;4746219;30;20686;-84
2023/04/18 08:43:58;;;;;;;4.25;3.25;;;;;;;;;;4731767;30;20052;-85
2023/04/18 08:47:15;;;;;;;3.75;3.38;;;;;;;;;;4747304;30;20108;-83
2023/04/18 08:50:48;;;;;;;4.35;3.30;;;;;;;;;;4741083;30;20048;-85
2023/04/18 08:54:17;;;;;;;6.65;4.10;;;;;;;;;;4740190;30;20055;-84
2023/04/18 09:02:38;;;;;;;56.15;46.28;;;;;;;;;;4769663;29;20080;-83
2023/04/18 09:06:36;;;;;;;;;;;;;;;;;;;;;
2023/04/18 09:18:11;;;;;;;;;;;;;;;;;;;;;
2023/04/18 09:25:23;;;;;;;3.65;3.30;;;;;;;;;;4813395;29;20054;-77
2023/04/18 09:27:52;;;;;;;4.13;3.42;;;;;;;;;;4827503;29;20054;-77
2023/04/18 09:30:39;;;;;;;49.47;25.17;;;;;;;;;;4830929;29;20056;-78
2023/04/18 09:33:09;;;;;;;4.70;4.07;;;;;;;;;;4829158;29;20168;-80
2023/04/18 09:35:37;;;;;;;5.50;4.95;;;;;;;;;;4824282;29;20050;-78
2023/04/18 09:38:07;;;;;;;3.85;3.53;;;;;;;;;;4832313;29;20072;-78
2023/04/18 09:40:35;;;;;;;19.67;13.50;;;;;;;;;;4845807;29;20049;-78
2023/04/18 09:43:16;;;;;;;5.35;4.43;;;;;;;;;;4825247;29;20127;-79
2023/04/18 09:45:43;;;;;;;5.53;3.85;;;;;;;;;;4828862;29;20054;-79
2023/04/18 09:48:11;;;;;;;3.95;3.17;;;;;;;;;;4835852;29;20352;-79
2023/04/18 09:50:39;;;;;;;4.60;3.33;;;;;;;;;;4828678;29;20582;-79
2023/04/18 09:53:07;;;;;;;6.65;3.78;;;;;;;;;;4824421;29;20059;-79
2023/04/18 09:55:36;;;;;;;3.40;3.10;;;;;;;;;;4844383;29;20118;-79
2023/04/18 09:58:04;;;;;;;2.80;2.60;;;;;;;;;;4829806;29;20053;-80
2023/04/18 10:00:33;;;;;;;3.47;3.17;;;;;;;;;;4829792;29;20038;-79
2023/04/18 10:03:08;;;;;;;6.63;5.10;;;;;;;;;;4830116;29;20046;-78
2023/04/18 10:05:38;;;;;;;3.22;2.92;;;;;;;;;;4835648;29;20054;-79
2023/04/18 10:08:06;;;;;;;3.58;2.80;;;;;;;;;;4830299;29;20195;-79
2023/04/18 10:10:35;;;;;;;3.10;2.80;;;;;;;;;;4832232;29;20133;-80
2023/04/18 10:13:05;;;;;;;2.90;2.70;;;;;;;;;;4828574;29;20115;-81
2023/04/18 10:15:33;;;;;;;3.17;2.88;;;;;;;;;;4837672;29;20125;-79
2023/04/18 10:18:01;;;;;;;3.28;3.08;;;;;;;;;;4827462;29;20046;-79
2023/04/18 10:20:33;;;;;;;4.85;3.22;;;;;;;;;;4832552;29;20073;-81
2023/04/18 10:23:27;;;;;;;2.55;2.35;;;;;;;;;;4831736;29;20051;-81
2023/04/18 10:25:55;;;;;;;2.80;2.60;;;;;;;;;;4830997;29;20065;-80
2023/04/18 10:28:23;;;;;;;3.22;2.58;;;;;;;;;;4835142;29;20050;-80
2023/04/18 10:30:52;;;;;;;3.72;3.42;;;;;;;;;;4839716;29;20621;-79
2023/04/18 10:33:23;;;;;;;2.80;2.60;;;;;;;;;;4833950;29;20050;-79
2023/04/18 10:35:58;;;;;;;3.05;2.75;;;;;;;;;;4833481;29;20150;-80
2023/04/18 10:38:26;;;;;;;3.30;3.10;;;;;;;;;;4840563;29;20064;-80
2023/04/18 10:41:11;;;;;;;4.10;3.20;;;;;;;;;;4834454;29;20053;-79
2023/04/18 10:44:02;;;;;;;3.83;3.08;;;;;;;;;;4827043;29;20046;-79
2023/04/18 10:46:29;;;;;;;5.47;3.08;;;;;;;;;;4837437;29;20133;-79
2023/04/18 10:49:18;;;;;;;3.97;2.75;;;;;;;;;;4828094;29;20054;-79
2023/04/18 10:51:47;;;;;;;3.17;2.95;;;;;;;;;;4835716;29;20467;-79
2023/04/18 10:54:29;;;;;;;3.33;2.92;;;;;;;;;;4830276;29;20050;-79
2023/04/18 10:57:01;;;;;;;2.97;2.70;;;;;;;;;;4822428;29;20073;-80
2023/04/18 10:59:33;;;;;;;3.72;2.88;;;;;;;;;;4834319;29;20062;-81
2023/04/18 11:02:06;;;;;;;3.55;3.22;;;;;;;;;;4821344;29;20046;-80
2023/04/18 11:04:33;;;;;;;3.40;2.58;;;;;;;;;;4820406;29;20057;-81
2023/04/18 11:07:01;;;;;;;2.60;2.40;;;;;;;;;;4822834;29;20062;-78
2023/04/18 11:09:29;;;;;;;5.05;2.92;;;;;;;;;;4831227;29;20046;-79
2023/04/18 11:12:05;;;;;;;3.90;3.60;;;;;;;;;;4821148;29;20094;-79
2023/04/18 11:15:02;;;;;;;68.45;51.50;;;;;;;;;;4825226;29;20060;-79
2023/04/18 11:17:33;;;;;;;9.38;2.80;;;;;;;;;;4833035;29;20513;-79
2023/04/18 11:20:05;;;;;;;3.83;2.75;;;;;;;;;;4833604;29;20081;-79
2023/04/18 11:22:32;;;;;;;2.85;2.65;;;;;;;;;;4830790;29;20136;-79
2023/04/18 11:25:00;;;;;;;2.47;2.28;;;;;;;;;;4838016;29;20049;-79
2023/04/18 11:27:29;;;;;;;2.60;2.40;;;;;;;;;;4833408;29;20529;-79
2023/04/18 11:29:58;;;;;;;2.25;2.15;;;;;;;;;;4836045;29;20050;-79
2023/04/18 11:32:26;;;;;;;2.72;2.53;;;;;;;;;;4832455;29;20498;-79
2023/04/18 11:34:54;;;;;;;2.30;2.10;;;;;;;;;;4832516;29;20050;-79
2023/04/18 11:37:22;;;;;;;3.25;2.28;;;;;;;;;;4834961;29;20076;-79
2023/04/18 11:39:52;;;;;;;4.65;2.88;;;;;;;;;;4828080;29;20046;-79
2023/04/18 11:42:21;;;;;;;9.98;2.17;;;;;;;;;;4831115;29;20042;-80
2023/04/18 11:45:01;;;;;;;1.77;1.67;;;;;;;;;;4833673;29;20057;-79
2023/04/18 11:47:32;;;;;;;1.90;1.80;;;;;;;;;;4830796;29;20065;-80
2023/04/18 11:50:01;;;;;;;2.30;2.08;;;;;;;;;;4831294;29;20417;-79
2023/04/18 11:52:30;;;;;;;2.30;2.10;;;;;;;;;;4834032;29;20429;-79
2023/04/18 11:55:11;;;;;;;1.83;1.73;;;;;;;;;;4830303;29;20054;-79
2023/04/18 11:57:39;;;;;;;1.70;1.60;;;;;;;;;;4833253;29;20500;-79
2023/04/18 12:00:08;;;;;;;1.85;1.75;;;;;;;;;;4836810;29;20054;-79
2023/04/18 12:02:43;;;;;;;1.38;1.27;;;;;;;;;;4834611;29;20052;-80
2023/04/18 12:05:13;;;;;;;1.60;1.35;;;;;;;;;;4830639;29;20431;-80
2023/04/18 12:07:42;;;;;;;1.83;1.73;;;;;;;;;;4836734;29;20644;-80
2023/04/18 12:10:29;;;;;;;1.60;1.50;;;;;;;;;;4830224;29;20050;-80
2023/04/18 12:12:57;;;;;;;1.50;1.40;;;;;;;;;;4842368;29;20093;-80
2023/04/18 12:15:26;;;;;;;1.20;1.20;;;;;;;;;;4829291;29;20512;-80
2023/04/18 12:17:59;;;;;;;1.30;1.30;;;;;;;;;;4830804;29;20505;-80
2023/04/18 12:20:36;;;;;;;4.05;1.38;;;;;;;;;;4830005;29;20111;-80
2023/04/18 12:23:06;;;;;;;1.33;1.27;;;;;;;;;;4831757;29;20134;-80
2023/04/18 12:25:43;;;;;;;7.72;1.60;;;;;;;;;;4835012;29;20359;-80
2023/04/18 12:28:15;;;;;;;1.58;1.48;;;;;;;;;;4819248;29;20061;-80
2023/04/18 12:30:44;;;;;;;6.07;1.50;;;;;;;;;;4829353;29;20053;-80
2023/04/18 12:33:11;;;;;;;1.17;1.10;;;;;;;;;;4827872;29;20602;-80
2023/04/18 12:35:38;;;;;;;9.23;1.40;;;;;;;;;;4827264;29;20098;-80
2023/04/18 12:38:06;;;;;;;1.33;1.33;;;;;;;;;;4825363;29;20050;-80
2023/04/18 12:40:33;;;;;;;1.55;1.45;;;;;;;;;;4821958;29;20121;-80
2023/04/18 12:43:00;;;;;;;1.20;1.15;;;;;;;;;;4825275;29;20046;-80
2023/04/18 12:45:30;;;;;;;1.17;1.13;;;;;;;;;;4822905;29;20397;-80
2023/04/18 12:47:57;;;;;;;0.95;0.95;;;;;;;;;;4822619;29;20046;-80
2023/04/18 12:50:26;;;;;;;1.08;1.08;;;;;;;;;;4825445;29;20141;-80
2023/04/18 12:52:54;;;;;;;1.15;1.15;;;;;;;;;;4836805;29;20043;-79
2023/04/18 12:55:22;;;;;;;0.95;0.95;;;;;;;;;;4829731;29;20168;-79
2023/04/18 12:57:53;;;;;;;2.25;2.08;;;;;;;;;;4831026;29;20307;-79
2023/04/18 13:00:22;;;;;;;1.00;1.00;;;;;;;;;;4825466;29;20069;-79
2023/04/18 13:02:51;;;;;;;17.70;7.85;;;;;;;;;;4833340;29;20046;-79
2023/04/18 13:05:20;;;;;;;0.80;0.80;;;;;;;;;;4827325;29;20064;-80
2023/04/18 13:07:48;;;;;;;1.13;1.13;;;;;;;;;;4829261;29;20178;-80
2023/04/18 13:10:17;;;;;;;1.00;0.98;;;;;;;;;;4823744;29;20074;-79
2023/04/18 13:12:45;;;;;;;1.17;1.17;;;;;;;;;;4829374;29;20061;-79
2023/04/18 13:15:12;;;;;;;0.93;0.93;;;;;;;;;;4831641;29;20050;-80
2023/04/18 13:17:40;;;;;;;1.08;1.05;;;;;;;;;;4837339;29;20066;-79
2023/04/18 13:20:09;;;;;;;1.13;1.00;;;;;;;;;;4831951;29;20054;-80
2023/04/18 13:22:38;;;;;;;2.20;0.95;;;;;;;;;;4831841;29;20078;-80
2023/04/18 13:25:07;;;;;;;1.20;1.20;;;;;;;;;;4825683;29;20095;-80
2023/04/18 13:27:35;;;;;;;4.70;1.00;;;;;;;;;;4817291;29;20061;-80
2023/04/18 13:30:03;;;;;;;1.95;1.10;;;;;;;;;;4817951;29;20054;-79
2023/04/18 13:32:31;;;;;;;3.15;1.15;;;;;;;;;;4820251;29;20049;-79
2023/04/18 13:34:58;;;;;;;0.63;0.63;;;;;;;;;;4824682;29;20137;-80
2023/04/18 13:37:26;;;;;;;1.23;1.10;;;;;;;;;;4817684;29;20534;-80
2023/04/18 13:39:53;;;;;;;2.22;1.98;;;;;;;;;;4826034;29;20696;-80
2023/04/18 13:42:20;;;;;;;1.00;1.00;;;;;;;;;;4833514;29;20449;-79
2023/04/18 13:44:48;;;;;;;1.15;1.15;;;;;;;;;;4823947;29;20050;-79
2023/04/18 13:47:16;;;;;;;1.02;1.02;;;;;;;;;;4834734;29;20081;-80
2023/04/18 13:49:43;;;;;;;1.65;1.20;;;;;;;;;;4829863;29;20050;-80
2023/04/18 13:52:11;;;;;;;1.35;1.25;;;;;;;;;;4831805;29;20084;-81
2023/04/18 13:54:40;;;;;;;2.83;2.42;;;;;;;;;;4825689;29;20337;-79
2023/04/18 13:57:10;;;;;;;1.40;1.40;;;;;;;;;;4828563;29;20068;-80
2023/04/18 13:59:39;;;;;;;2.60;1.58;;;;;;;;;;4829821;29;20508;-79
2023/04/18 14:02:10;;;;;;;1.60;1.50;;;;;;;;;;4834772;29;20053;-79
2023/04/18 14:04:38;;;;;;;1.70;1.60;;;;;;;;;;4826548;29;20092;-79
2023/04/18 14:07:06;;;;;;;1.70;1.60;;;;;;;;;;4831180;29;20046;-79
2023/04/18 14:09:47;;;;;;;;;;;;;;;;;;;;;
2023/04/18 14:12:26;;;;;;;2.60;1.75;;;;;;;;;;4851704;29;20057;-80
2023/04/18 14:14:53;;;;;;;3.08;1.98;;;;;;;;;;4845017;29;20050;-83
2023/04/18 14:17:21;;;;;;;1.80;1.70;;;;;;;;;;4828758;29;20054;-81
2023/04/18 14:19:53;;;;;;;1.73;1.63;;;;;;;;;;4832633;29;20075;-81
2023/04/18 14:22:21;;;;;;;1.83;1.73;;;;;;;;;;4841803;29;20058;-80
2023/04/18 14:24:55;;;;;;;1.85;1.70;;;;;;;;;;4835421;29;20416;-79
2023/04/18 14:27:24;;;;;;;1.52;1.42;;;;;;;;;;4832315;29;20106;-81
2023/04/18 14:29:52;;;;;;;2.10;1.90;;;;;;;;;;4828874;29;20505;-80
2023/04/18 14:32:19;;;;;;;1.65;1.55;;;;;;;;;;4826663;29;20110;-82
2023/04/18 14:34:47;;;;;;;1.55;1.45;;;;;;;;;;4821497;29;20542;-81
2023/04/18 14:37:14;;;;;;;1.48;1.38;;;;;;;;;;4828591;29;20081;-81
2023/04/18 14:39:44;;;;;;;3.22;1.50;;;;;;;;;;4829917;29;20054;-81
2023/04/18 14:42:12;;;;;;;2.42;2.33;;;;;;;;;;4834459;29;20070;-83
2023/04/18 14:44:40;;;;;;;1.50;1.40;;;;;;;;;;4832872;29;20082;-81
2023/04/18 14:47:11;;;;;;;1.50;1.40;;;;;;;;;;4834661;29;20075;-82
2023/04/18 14:49:38;;;;;;;1.90;1.80;;;;;;;;;;4828275;29;20054;-82
2023/04/18 14:52:06;;;;;;;1.20;1.20;;;;;;;;;;4836227;29;20057;-81
2023/04/18 14:54:33;;;;;;;2.83;1.42;;;;;;;;;;4835661;29;20092;-82
2023/04/18 14:57:07;;;;;;;1.58;1.48;;;;;;;;;;4835817;29;20519;-82
2023/04/18 14:59:35;;;;;;;2.88;2.30;;;;;;;;;;4831781;29;20826;-82
2023/04/18 15:02:03;;;;;;;2.15;1.80;;;;;;;;;;4834161;29;20087;-81
2023/04/18 15:04:31;;;;;;;2.97;1.50;;;;;;;;;;4839305;29;20080;-81
2023/04/18 15:07:00;;;;;;;1.27;1.23;;;;;;;;;;4824844;29;20496;-81
2023/04/18 15:09:28;;;;;;;1.00;1.00;;;;;;;;;;4833911;29;20050;-81
2023/04/18 15:11:57;;;;;;;7.05;4.40;;;;;;;;;;4828460;29;20133;-81
2023/04/18 15:14:27;;;;;;;0.80;0.80;;;;;;;;;;4828936;29;20506;-81
2023/04/18 15:16:55;;;;;;;0.70;0.70;;;;;;;;;;4828606;29;20049;-82
2023/04/18 15:19:23;;;;;;;1.00;0.90;;;;;;;;;;4822212;29;21079;-81
2023/04/18 15:21:51;;;;;;;0.90;0.90;;;;;;;;;;4829289;29;20054;-82
2023/04/18 15:24:19;;;;;;;0.70;0.70;;;;;;;;;;4828949;29;20046;-81
2023/04/18 15:26:49;;;;;;;0.80;0.80;;;;;;;;;;4831456;29;20048;-81
2023/04/18 15:29:18;;;;;;;0.80;0.80;;;;;;;;;;4831191;29;20141;-80
2023/04/18 15:31:46;;;;;;;0.50;0.50;;;;;;;;;;4834224;29;20079;-82
2023/04/18 15:34:13;;;;;;;0.52;0.52;;;;;;;;;;4829818;29;20042;-81